Latest Coastal Weather Observations for Gladstone

IDQ60701

Issued at 1:01 am EST Monday 6 July 2015 (issued every 10 minutes, with the page automatically refreshed every 10 minutes)

About coastal observations | Map of coastal stations | Coastal observations for QLD | Marine services | Other Formats
Station Details ID: 039123 Name: GLADSTONE RADAR Lat: -23.86 Lon: 151.26 Height: 74.5 m
Data from the previous 72 hours. | See also: Recent months at Gladstone
Date/Time
EST
Temp

°C
Wind Pressure Rain
since 9am
mm
Weather Cloud Vis
km
Sea
Height
m
Swell
Dir
 
Speed
knots
Gust
knots
hPa Trend Height
m
Period
s
Dir
06/01:00am 16.9 SSE 7 9 1020.3 - 0.0 - - - - - - -
06/12:30am 16.9 SSE 8 10 1020.6 - 0.0 - - - - - - -
06/12:00am 16.9 SSE 8 11 1020.6 - 0.0 - - - - - - -
 
Date/Time
EST
Temp

°C
Wind Pressure Rain
since 9am
mm
Weather Cloud Vis
km
Sea
Height
m
Swell
Dir
 
Speed
knots
Gust
knots
hPa Trend Height
m
Period
s
Dir
05/11:30pm 16.9 SSE 8 11 1020.7 - 0.0 - - - - - - -
05/11:00pm 16.9 SE 8 11 1020.8 - 0.0 - - - - - - -
05/10:30pm 16.6 SE 7 10 1020.8 - 0.0 - - - - - - -
05/10:00pm 16.9 SSE 7 10 1020.8 - 0.0 - - - - - - -
05/09:30pm 17.4 SSE 6 8 1020.9 - 0.0 - - - - - - -
05/09:00pm 17.5 ESE 6 8 1021.0 - 0.0 - - - - - - -
05/08:30pm 17.5 ESE 7 9 1020.8 - 0.0 - - - - - - -
05/08:00pm 17.7 ESE 7 10 1020.6 - 0.0 - - - - - - -
05/07:30pm 18.4 E 11 15 1020.5 - 0.0 - - - - - - -
05/07:00pm 18.3 E 12 17 1020.1 - 0.0 - - - - - - -
05/06:30pm 18.1 E 10 13 1019.9 - 0.0 - - - - - - -
05/06:00pm 18.3 E 9 13 1019.6 - 0.0 - - - - - - -
05/05:30pm 18.4 E 9 11 1019.4 - 0.0 - - - - - - -
05/05:00pm 19.3 E 10 13 1019.2 - 0.0 - - - - - - -
05/04:30pm 20.0 E 11 16 1019.1 - 0.0 - - - - - - -
05/04:00pm 20.7 ENE 11 15 1019.1 - 0.0 - - - - - - -
05/03:30pm 21.2 ENE 11 16 1019.2 - 0.0 - - - - - - -
05/03:00pm 21.7 ENE 11 15 1019.4 - 0.0 - - - - - - -
05/02:30pm 22.4 ENE 11 15 1019.5 - 0.0 - - - - - - -
05/02:00pm 22.6 ENE 10 13 1019.7 - 0.0 - - - - - - -
05/01:30pm 23.0 ENE 10 15 1020.0 - 0.0 - - - - - - -
05/01:00pm 23.1 ENE 10 13 1020.3 - 0.0 - - - - - - -
05/12:30pm 23.5 ENE 8 12 1020.5 - 0.0 - - - - - - -
05/12:00pm 23.6 ESE 7 10 1021.0 - 0.0 - - - - - - -
05/11:30am 24.1 E 6 9 1021.5 - 0.0 - - - - - - -
05/11:00am 22.2 E 7 10 1021.8 - 0.0 - - - - - - -
05/10:30am 21.0 SSE 8 13 1022.0 - 0.0 - - - - - - -
05/10:00am 20.2 SE 11 17 1022.2 - 0.0 - - - - - - -
05/09:30am 19.5 SE 8 16 1022.3 - 0.0 - - - - - - -
05/09:00am 20.1 SE 7 12 1022.3 - 0.0 - - - - - - -
05/08:30am 17.8 S 4 6 1022.2 - 0.0 - - - - - - -
05/08:00am 17.1 S 4 5 1021.7 - 0.0 - - - - - - -
05/07:30am 16.5 SSW 6 9 1021.3 - 0.0 - - - - - - -
05/07:00am 16.4 SSW 8 10 1021.0 - 0.0 - - - - - - -
05/06:30am 16.4 SSW 8 10 1020.8 - 0.0 - - - - - - -
05/06:00am 16.3 SSW 6 9 1020.5 - 0.0 - - - - - - -
05/05:30am 16.5 SW 6 9 1020.3 - 0.0 - - - - - - -
05/05:00am 16.9 S 6 9 1019.9 - 0.0 - - - - - - -
05/04:30am 16.9 SSE 8 12 1019.8 - 0.0 - - - - - - -
05/04:00am 17.1 SSE 8 12 1019.7 - 0.0 - - - - - - -
05/03:30am 17.1 SSE 9 12 1019.7 - 0.0 - - - - - - -
05/03:00am 16.9 SSE 8 12 1019.8 - 0.0 - - - - - - -
05/02:30am 16.5 SSE 9 13 1019.9 - 0.0 - - - - - - -
05/02:00am 16.5 SSE 9 13 1020.3 - 0.0 - - - - - - -
05/01:30am 16.9 SSE 9 13 1020.6 - 0.0 - - - - - - -
05/01:00am 16.9 SSE 7 13 1020.9 - 0.0 - - - - - - -
05/12:30am 17.2 SSE 8 11 1021.2 - 0.0 - - - - - - -
05/12:00am 17.3 SSE 8 11 1021.3 - 0.0 - - - - - - -
 
Date/Time
EST
Temp

°C
Wind Pressure Rain
since 9am
mm
Weather Cloud Vis
km
Sea
Height
m
Swell
Dir
 
Speed
knots
Gust
knots
hPa Trend Height
m
Period
s
Dir
04/11:30pm 17.0 SSE 8 11 1021.4 - 0.0 - - - - - - -
04/11:00pm 17.0 SSE 8 11 1021.5 - 0.0 - - - - - - -
04/10:30pm 16.9 SE 9 12 1021.7 - 0.0 - - - - - - -
04/10:00pm 17.2 SE 10 13 1021.8 - 0.0 - - - - - - -
04/09:30pm 17.6 SSE 8 11 1021.8 - 0.0 - - - - - - -
04/09:00pm 17.6 SSE 8 13 1021.8 - 0.0 - - - - - - -
04/08:30pm 17.6 SSE 8 14 1021.6 - 0.0 - - - - - - -
04/08:00pm 17.8 SE 9 12 1021.5 - 0.0 - - - - - - -
04/07:30pm 17.9 SE 9 12 1021.4 - 0.0 - - - - - - -
04/07:00pm 17.9 E 9 13 1020.9 - 0.0 - - - - - - -
04/06:30pm 18.0 E 11 15 1020.5 - 0.0 - - - - - - -
04/06:00pm 18.1 E 11 15 1020.2 - 0.0 - - - - - - -
04/05:30pm 18.6 E 13 18 1020.0 - 0.0 - - - - - - -
04/05:00pm 19.1 E 12 16 1019.7 - 0.0 - - - - - - -
04/04:30pm 19.8 E 11 16 1019.5 - 0.0 - - - - - - -
04/04:00pm 20.7 E 11 17 1019.2 - 0.0 - - - - - - -
04/03:30pm 21.2 E 13 17 1019.2 - 0.0 - - - - - - -
04/03:00pm 21.6 E 12 19 1019.1 - 0.0 - - - - - - -
04/02:30pm 21.7 E 13 19 1019.0 - 0.0 - - - - - - -
04/02:00pm 22.2 E 14 18 1019.1 - 0.0 - - - - - - -
04/01:30pm 22.8 E 10 18 1019.2 - 0.0 - - - - - - -
04/01:00pm 22.0 ESE 10 15 1019.4 - 0.0 - - - - - - -
04/12:30pm 22.4 E 10 14 1019.9 - 0.0 - - - - - - -
04/12:00pm 21.5 ESE 12 18 1020.5 - 0.0 - - - - - - -
04/11:30am 21.5 ESE 12 19 1021.0 - 0.0 - - - - - - -
04/11:00am 20.7 ESE 11 16 1021.3 - 0.0 - - - - - - -
04/10:30am 20.2 SE 11 17 1021.5 - 0.0 - - - - - - -
04/10:00am 19.7 SE 7 15 1021.7 - 0.0 - - - - - - -
04/09:30am 18.3 SSE 7 12 1021.9 - 0.0 - - - - - - -
04/09:00am 17.2 SSE 8 12 1022.0 - 0.0 - - - - - - -
04/08:30am 16.6 S 5 9 1022.1 - 0.0 - - - - - - -
04/08:00am 15.3 SSW 4 7 1022.2 - 0.0 - - - - - - -
04/07:30am 15.1 SSW 6 11 1022.0 - 0.0 - - - - - - -
04/07:00am 14.4 SSW 5 9 1021.7 - 0.0 - - - - - - -
04/06:30am 15.1 SSW 5 8 1021.1 - 0.0 - - - - - - -
04/06:00am 15.0 S 6 11 1020.9 - 0.0 - - - - - - -
04/05:30am 15.3 S 8 15 1020.7 - 0.0 - - - - - - -
04/05:00am 15.5 SSE 8 14 1020.6 - 0.0 - - - - - - -
04/04:30am 15.2 S 8 13 1020.4 - 0.0 - - - - - - -
04/04:00am 13.4 S 6 10 1020.6 - 0.0 - - - - - - -
04/03:30am 14.3 SSE 6 10 1020.5 - 0.0 - - - - - - -
04/03:00am 14.7 SSE 5 10 1020.4 - 0.0 - - - - - - -
04/02:30am 15.0 S 7 12 1020.5 - 0.0 - - - - - - -
04/02:00am 15.1 S 8 12 1020.7 - 0.0 - - - - - - -
04/01:30am 15.2 S 9 14 1020.9 - 0.0 - - - - - - -
04/01:00am 14.9 S 8 11 1021.5 - 0.0 - - - - - - -
04/12:30am 14.8 S 8 11 1021.5 - 0.0 - - - - - - -
04/12:00am 14.8 S 8 10 1021.8 - 0.0 - - - - - - -
 
Date/Time
EST
Temp

°C
Wind Pressure Rain
since 9am
mm
Weather Cloud Vis
km
Sea
Height
m
Swell
Dir
 
Speed
knots
Gust
knots
hPa Trend Height
m
Period
s
Dir
03/11:30pm 15.0 S 8 12 1022.1 - 0.0 - - - - - - -
03/11:00pm 15.1 S 8 13 1022.1 - 0.0 - - - - - - -
03/10:30pm 15.5 S 9 13 1022.0 - 0.0 - - - - - - -
03/10:00pm 15.7 SSE 8 12 1022.1 - 0.0 - - - - - - -
03/09:30pm 15.8 SSE 8 10 1022.1 - 0.0 - - - - - - -
03/09:00pm 16.3 S 8 10 1022.1 - 0.0 - - - - - - -
03/08:30pm 16.4 S 8 10 1022.0 - 0.0 - - - - - - -
03/08:00pm 16.5 S 8 10 1021.9 - 0.0 - - - - - - -
03/07:30pm 16.6 S 8 10 1021.5 - 0.0 - - - - - - -
03/07:00pm 16.6 S 8 10 1021.3 - 0.0 - - - - - - -
03/06:30pm 16.7 S 7 9 1021.1 - 0.0 - - - - - - -
03/06:00pm 17.2 SSE 8 12 1020.9 - 0.0 - - - - - - -
03/05:30pm 17.0 SSE 7 11 1020.7 - 0.0 - - - - - - -
03/05:00pm 17.7 SSE 7 11 1020.3 - 0.0 - - - - - - -
03/04:30pm 18.3 S 7 11 1020.0 - 0.0 - - - - - - -
03/04:00pm 18.6 SSE 7 11 1019.5 - 0.0 - - - - - - -
03/03:30pm 18.8 SE 7 11 1019.3 - 0.0 - - - - - - -
03/03:00pm 18.7 SSE 9 13 1019.1 - 0.0 - - - - - - -
03/02:30pm 19.6 SE 7 12 1019.3 - 0.0 - - - - - - -
03/02:00pm 18.8 SE 9 17 1019.4 - 0.0 - - - - - - -
03/01:30pm 19.3 ESE 9 15 1019.7 - 0.0 - - - - - - -
03/01:00pm 18.5 SE 9 15 1020.1 - 0.0 - - - - - - -
03/12:30pm 19.3 ESE 6 10 1020.4 - 0.0 - - - - - - -
03/12:00pm 18.2 ESE 11 16 1020.9 - 0.0 - - - - - - -
03/11:30am 18.0 ESE 6 10 1021.3 - 0.0 - - - - - - -
03/11:00am 17.0 ESE 5 11 1021.5 - 0.0 - - - - - - -
03/10:30am 15.5 S 4 9 1021.6 - 0.0 - - - - - - -
03/10:00am 14.2 SW 6 10 1021.7 - 0.0 - - - - - - -
03/09:30am 13.2 SSW 6 12 1021.7 - 0.0 - - - - - - -
03/09:00am 12.0 SSW 9 18 1021.5 - 0.0 - - - - - - -
03/08:30am 11.2 SSW 7 12 1021.3 - 0.0 - - - - - - -
03/08:00am 10.5 SW 8 15 1020.8 - 0.0 - - - - - - -
03/07:30am 9.6 SW 7 13 1020.5 - 0.0 - - - - - - -
03/07:00am 9.5 SW 8 16 1020.2 - 0.0 - - - - - - -
03/06:30am 9.9 SW 9 17 1020.0 - 0.0 - - - - - - -
03/06:00am 10.7 SSW 11 19 1019.6 - 0.0 - - - - - - -
03/05:30am 10.7 SSW 10 17 1019.4 - 0.0 - - - - - - -
03/05:00am 10.2 SSW 10 15 1019.3 - 0.0 - - - - - - -
03/04:30am 10.7 SW 9 17 1019.1 - 0.0 - - - - - - -
03/04:00am 11.0 SSW 9 14 1019.1 - 0.0 - - - - - - -
03/03:30am 11.3 SSW 8 14 1019.3 - 0.0 - - - - - - -
03/03:00am 11.9 SW 8 16 1019.3 - 0.0 - - - - - - -
03/02:30am 12.5 SSW 11 18 1019.4 - 0.0 - - - - - - -
03/02:00am 12.9 SSW 10 15 1019.7 - 0.0 - - - - - - -
03/01:30am 13.1 SSW 9 14 1020.1 - 0.0 - - - - - - -

Other Formats:

Comma delimited format used in spreadsheet applications
http://www.bom.gov.au/fwo/IDQ60701/IDQ60701.94380.axf

JavaScript Object Notation format (JSON) in row-major order
http://www.bom.gov.au/fwo/IDQ60701/IDQ60701.94380.json